Time;durP1;ratioP1;P1;durP2;ratioP2;P2;SDS_P1;SDS_P2;PMS_P1;PMS_P2;Temp;Humidity;BMP_temperature;BMP_pressure;BME280_temperature;BME280_humidity;BME280_pressure;Samples;Min_cycle;Max_cycle;Signal;HPM_P1;HPM_P2
2023/04/03 00:02:25;;;;;;;;;34.75;29.00;;;;;8.86;61.64;102211.13;5089124;27;45500;-67
2023/04/03 00:04:51;;;;;;;;;44.75;31.75;;;;;8.93;61.39;102225.28;5097993;27;45901;-68
2023/04/03 00:07:16;;;;;;;;;39.50;32.00;;;;;8.96;61.26;102219.28;5066981;27;45660;-70
2023/04/03 00:09:42;;;;;;;;;41.00;34.25;;;;;8.82;61.27;102187.47;5082337;27;45493;-69
2023/04/03 00:12:07;;;;;;;;;35.00;32.25;;;;;8.99;61.38;102217.63;5084925;27;45367;-69
2023/04/03 00:14:33;;;;;;;;;34.75;28.75;;;;;8.96;60.90;102220.16;5077931;27;45406;-68
2023/04/03 00:16:58;;;;;;;;;35.75;28.75;;;;;8.86;61.14;102218.09;5091333;27;45499;-69
2023/04/03 00:19:24;;;;;;;;;31.75;30.25;;;;;8.89;61.17;102226.03;5062188;27;45496;-68
2023/04/03 00:21:50;;;;;;;;;33.75;31.00;;;;;8.83;61.07;102229.34;5080424;27;45449;-68
2023/04/03 00:24:16;;;;;;;;;33.00;28.50;;;;;8.76;60.69;102216.91;5084896;27;45863;-68
2023/04/03 00:26:41;;;;;;;;;38.50;30.75;;;;;8.76;61.23;102227.34;5063042;27;46552;-67
2023/04/03 00:29:07;;;;;;;;;32.75;30.25;;;;;8.58;61.58;102217.16;5088910;27;45438;-68
2023/04/03 00:31:32;;;;;;;;;51.50;40.00;;;;;8.62;61.81;102220.78;5075365;27;45357;-68
2023/04/03 00:33:58;;;;;;;;;43.50;34.50;;;;;8.64;61.34;102222.59;5079784;27;45530;-68
2023/04/03 00:36:23;;;;;;;;;39.25;24.25;;;;;8.69;61.92;102231.47;5076809;27;45417;-69
2023/04/03 00:38:49;;;;;;;;;29.25;26.25;;;;;8.70;61.56;102219.31;5087936;27;45505;-69
2023/04/03 00:41:15;;;;;;;;;28.75;23.75;;;;;8.80;61.39;102217.88;5075767;27;45798;-67
2023/04/03 00:43:40;;;;;;;;;36.00;30.25;;;;;8.91;61.45;102233.06;5076127;27;45553;-69
2023/04/03 00:46:06;;;;;;;;;37.75;26.50;;;;;9.00;61.11;102223.78;5059415;28;45552;-69
2023/04/03 00:48:40;;;;;;;;;31.00;27.00;;;;;8.98;60.92;102218.47;5077091;27;45811;-69
2023/04/03 00:51:12;;;;;;;;;27.00;26.50;;;;;9.09;60.55;102216.22;5058252;28;45487;-68
2023/04/03 00:54:04;;;;;;;;;40.25;35.50;;;;;9.05;60.41;102204.78;5058418;27;45531;-69
2023/04/03 00:56:31;;;;;;;;;32.25;27.25;;;;;9.11;60.53;102209.28;5068851;27;46708;-70
2023/04/03 00:59:21;;;;;;;;;35.25;29.75;;;;;9.22;60.38;102228.81;5075339;27;45443;-67
2023/04/03 01:01:48;;;;;;;;;29.25;26.50;;;;;9.24;60.32;102216.69;5075408;27;45482;-70
2023/04/03 01:04:32;;;;;;;;;42.25;32.50;;;;;9.30;60.00;102216.91;5077941;27;45716;-68
2023/04/03 01:07:20;;;;;;;;;28.25;25.00;;;;;9.30;60.60;102205.53;5075619;27;45554;-68
2023/04/03 01:09:48;;;;;;;;;26.75;23.50;;;;;9.37;59.96;102206.59;5075310;27;45766;-69
2023/04/03 01:12:33;;;;;;;;;30.50;27.50;;;;;9.46;59.78;102214.72;5058207;28;45413;-68
2023/04/03 01:15:01;;;;;;;;;33.75;29.00;;;;;9.44;59.79;102205.94;5079304;27;45429;-68
2023/04/03 01:17:35;;;;;;;;;33.50;29.00;;;;;9.48;59.55;102202.59;5096000;27;45323;-69
2023/04/03 01:20:31;;;;;;;;;27.50;22.00;;;;;9.49;59.13;102201.75;5097055;27;45534;-69
2023/04/03 01:23:12;;;;;;;;;26.50;23.75;;;;;9.51;59.41;102206.19;5096205;27;45508;-68
2023/04/03 01:25:40;;;;;;;;;30.00;25.75;;;;;9.56;59.32;102201.06;5077831;27;45584;-70
2023/04/03 01:28:10;;;;;;;;;25.50;23.00;;;;;9.54;58.95;102208.03;5077455;27;46781;-68
2023/04/03 01:31:20;;;;;;;;;25.75;20.75;;;;;9.55;59.19;102205.44;5081359;27;45572;-68
2023/04/03 01:33:46;;;;;;;;;24.00;19.25;;;;;9.56;59.04;102193.22;5100266;27;45271;-68
2023/04/03 01:36:38;;;;;;;;;24.00;22.25;;;;;9.61;59.25;102196.91;5100968;27;45358;-69
2023/04/03 01:39:04;;;;;;;;;27.50;22.00;;;;;9.67;59.03;102190.94;5096224;27;46746;-68
2023/04/03 01:41:29;;;;;;;;;33.75;30.25;;;;;9.66;59.30;102195.28;5094885;27;45306;-69
2023/04/03 01:43:55;;;;;;;;;32.50;26.50;;;;;9.64;59.49;102190.88;5100274;27;45342;-68
2023/04/03 01:46:38;;;;;;;;;28.75;26.00;;;;;9.59;59.65;102182.00;5098416;27;45473;-68
2023/04/03 01:49:23;;;;;;;;;30.50;26.00;;;;;9.58;59.49;102202.03;5061782;27;47520;-70
2023/04/03 01:51:49;;;;;;;;;32.25;25.25;;;;;9.43;59.68;102176.31;5076768;27;45820;-68
2023/04/03 01:54:14;;;;;;;;;38.25;32.00;;;;;9.60;59.50;102205.56;5091936;27;45727;-68
2023/04/03 01:56:40;;;;;;;;;33.25;29.50;;;;;9.59;59.73;102203.81;5076598;28;45531;-68
2023/04/03 01:59:05;;;;;;;;;41.25;35.25;;;;;9.52;59.71;102199.25;5092796;27;45356;-69
2023/04/03 02:01:31;;;;;;;;;31.25;27.00;;;;;9.31;60.28;102195.13;5095152;27;45475;-69
2023/04/03 02:03:56;;;;;;;;;24.75;22.50;;;;;9.26;60.73;102203.69;5076507;27;45731;-69
2023/04/03 02:06:22;;;;;;;;;31.50;26.25;;;;;9.29;60.83;102198.53;5094535;27;45592;-69
2023/04/03 02:08:48;;;;;;;;;29.75;26.00;;;;;9.26;60.28;102188.00;5094254;27;45629;-69
2023/04/03 02:11:13;;;;;;;;;23.75;22.25;;;;;9.26;60.54;102181.03;5093997;27;45767;-68
2023/04/03 02:13:39;;;;;;;;;30.75;24.75;;;;;9.40;60.29;102205.00;5090665;27;45516;-69
2023/04/03 02:16:09;;;;;;;;;42.50;33.25;;;;;9.38;60.04;102198.81;5076661;27;45521;-69
2023/04/03 02:18:36;;;;;;;;;37.75;29.75;;;;;9.27;60.07;102194.97;5097732;27;45552;-69
2023/04/03 02:21:02;;;;;;;;;39.75;32.75;;;;;9.22;60.39;102192.22;5073667;28;45427;-68
2023/04/03 02:23:27;;;;;;;;;33.50;27.50;;;;;9.24;59.94;102206.22;5093114;27;45746;-69
2023/04/03 02:25:53;;;;;;;;;39.75;33.00;;;;;9.13;59.89;102202.41;5072677;27;45568;-68
2023/04/03 02:28:19;;;;;;;;;33.75;29.00;;;;;9.00;60.26;102200.25;5098698;27;46114;-69
2023/04/03 02:30:44;;;;;;;;;29.00;24.00;;;;;8.95;61.05;102205.31;5098863;27;45515;-68
2023/04/03 02:33:10;;;;;;;;;30.25;24.50;;;;;8.98;61.24;102201.94;5082989;27;45290;-69
2023/04/03 02:35:36;;;;;;;;;31.50;28.25;;;;;8.83;60.67;102178.81;5063743;27;45413;-69
2023/04/03 02:38:02;;;;;;;;;35.25;28.50;;;;;9.05;60.26;102203.91;5093085;27;46495;-69
2023/04/03 02:40:27;;;;;;;;;31.00;23.25;;;;;9.01;60.28;102196.78;5076125;27;45761;-69
2023/04/03 02:42:53;;;;;;;;;30.50;28.00;;;;;8.93;59.93;102195.66;5076251;27;45507;-69
2023/04/03 02:45:18;;;;;;;;;36.25;30.50;;;;;8.86;59.84;102213.75;5078468;27;45338;-69
2023/04/03 02:47:44;;;;;;;;;34.50;22.75;;;;;8.82;59.96;102206.63;5098462;27;46357;-69
2023/04/03 02:50:10;;;;;;;;;25.75;23.50;;;;;8.60;60.09;102207.66;5083828;27;45638;-69
2023/04/03 02:52:35;;;;;;;;;37.50;28.50;;;;;8.43;60.37;102182.72;5080362;27;45362;-69
2023/04/03 02:55:01;;;;;;;;;35.00;30.25;;;;;8.34;60.96;102196.28;5098728;27;45369;-68
2023/04/03 02:57:27;;;;;;;;;34.75;31.25;;;;;8.21;61.28;102200.22;5096314;27;46269;-68
2023/04/03 02:59:52;;;;;;;;;29.00;26.25;;;;;8.21;61.50;102199.31;5093845;27;45411;-69
2023/04/03 03:02:18;;;;;;;;;36.25;32.25;;;;;8.15;61.60;102199.09;5076252;27;45785;-68
2023/04/03 03:04:43;;;;;;;;;30.25;27.50;;;;;8.15;62.09;102191.28;5095172;27;45415;-69
2023/04/03 03:07:09;;;;;;;;;35.75;30.75;;;;;8.26;61.48;102203.88;5094696;27;45456;-69
2023/04/03 03:09:37;;;;;;;;;37.75;29.50;;;;;8.26;61.32;102206.47;5096605;27;45367;-69
2023/04/03 03:12:02;;;;;;;;;33.25;27.50;;;;;8.20;61.24;102197.53;5099379;27;45550;-69
2023/04/03 03:14:28;;;;;;;;;44.25;34.25;;;;;8.15;61.30;102201.72;5095417;27;45333;-69
2023/04/03 03:16:53;;;;;;;;;26.50;25.50;;;;;8.07;61.30;102204.94;5093751;27;45473;-69
2023/04/03 03:19:19;;;;;;;;;31.00;28.25;;;;;7.96;61.84;102195.84;5093795;27;45485;-68
2023/04/03 03:21:45;;;;;;;;;25.75;25.75;;;;;7.93;61.61;102197.47;5093793;27;45451;-68
2023/04/03 03:24:11;;;;;;;;;26.50;22.50;;;;;8.03;61.86;102204.78;5075811;27;45490;-69
2023/04/03 03:26:37;;;;;;;;;30.00;22.25;;;;;8.13;61.57;102199.03;5093860;27;46580;-69
2023/04/03 03:29:03;;;;;;;;;26.00;22.00;;;;;8.20;61.21;102193.19;5077696;27;45452;-70
2023/04/03 03:31:28;;;;;;;;;29.00;25.00;;;;;8.32;61.10;102197.97;5097795;27;45442;-69
2023/04/03 03:33:54;;;;;;;;;26.50;23.25;;;;;8.38;61.10;102198.19;5098422;27;45489;-69
2023/04/03 03:36:20;;;;;;;;;28.25;20.50;;;;;8.40;60.71;102191.34;5093920;27;45400;-70
2023/04/03 03:38:45;;;;;;;;;25.50;24.00;;;;;8.50;60.50;102197.75;5095271;27;45354;-69
2023/04/03 03:41:11;;;;;;;;;24.25;22.50;;;;;8.46;60.51;102186.28;5095955;27;45465;-68
2023/04/03 03:43:36;;;;;;;;;23.75;17.75;;;;;8.57;60.39;102191.91;5074903;27;45455;-68
2023/04/03 03:46:02;;;;;;;;;23.75;18.75;;;;;8.64;59.63;102190.38;5078445;27;47122;-68
2023/04/03 03:48:27;;;;;;;;;26.75;20.25;;;;;8.63;59.32;102178.13;5093844;27;45616;-68
2023/04/03 03:50:53;;;;;;;;;29.75;24.50;;;;;8.66;58.99;102192.22;5093202;27;45519;-68
2023/04/03 03:53:19;;;;;;;;;24.75;19.25;;;;;8.48;59.75;102179.41;5075128;27;45390;-69
2023/04/03 03:55:45;;;;;;;;;25.00;22.50;;;;;8.56;59.77;102186.59;5093307;27;45807;-69
2023/04/03 03:58:10;;;;;;;;;20.75;18.75;;;;;8.46;59.30;102167.13;5093283;27;45415;-68
2023/04/03 04:00:36;;;;;;;;;23.75;19.50;;;;;8.51;59.43;102169.91;5096529;27;45416;-68
2023/04/03 04:03:01;;;;;;;;;24.00;17.75;;;;;8.64;59.30;102185.16;5093556;27;45294;-67
2023/04/03 04:05:27;;;;;;;;;25.75;20.75;;;;;8.72;59.18;102198.47;5093586;27;45778;-69
2023/04/03 04:07:53;;;;;;;;;23.75;18.50;;;;;8.73;59.01;102193.28;5093059;27;45405;-69
2023/04/03 04:10:18;;;;;;;;;22.50;19.25;;;;;8.84;58.75;102188.41;5093851;27;45863;-68
2023/04/03 04:12:44;;;;;;;;;21.50;16.75;;;;;8.84;58.17;102183.19;5097072;27;45491;-68
2023/04/03 04:15:10;;;;;;;;;26.50;22.00;;;;;8.67;58.00;102172.19;5099841;27;46563;-69
2023/04/03 04:17:36;;;;;;;;;28.00;23.50;;;;;8.58;57.90;102184.94;5100510;27;45354;-68
2023/04/03 04:20:04;;;;;;;;;23.00;19.00;;;;;8.50;57.52;102184.69;5098198;27;45512;-68
2023/04/03 04:22:31;;;;;;;;;30.25;27.50;;;;;8.32;57.48;102176.19;5093823;27;45683;-68
2023/04/03 04:24:56;;;;;;;;;23.25;20.25;;;;;8.23;58.28;102195.94;5095830;27;46900;-68
2023/04/03 04:27:22;;;;;;;;;31.75;27.00;;;;;8.04;58.06;102180.44;5096830;27;45333;-68
2023/04/03 04:29:48;;;;;;;;;27.00;23.75;;;;;8.05;58.25;102190.94;5078347;27;45626;-67
2023/04/03 04:32:14;;;;;;;;;24.75;22.00;;;;;7.97;58.38;102187.19;5096449;27;45524;-69
2023/04/03 04:34:40;;;;;;;;;32.00;26.50;;;;;7.88;58.16;102189.47;5078619;27;46473;-66
2023/04/03 04:37:05;;;;;;;;;24.25;22.75;;;;;7.76;58.64;102176.88;5097759;27;45513;-69
2023/04/03 04:39:33;;;;;;;;;19.25;16.75;;;;;7.89;58.90;102190.34;5096336;27;45437;-67
2023/04/03 04:41:59;;;;;;;;;25.50;23.25;;;;;7.97;58.42;102192.41;5078280;27;45389;-67
2023/04/03 04:44:25;;;;;;;;;31.25;29.25;;;;;7.93;58.23;102173.97;5077881;27;46746;-69
2023/04/03 04:46:50;;;;;;;;;26.75;24.25;;;;;7.96;58.42;102185.41;5077739;27;45503;-69
2023/04/03 04:49:15;;;;;;;;;23.25;23.00;;;;;7.74;58.17;102143.72;5082346;27;45575;-68
2023/04/03 04:51:41;;;;;;;;;30.50;17.25;;;;;8.15;58.27;102199.09;5080192;27;45556;-68
2023/04/03 04:54:06;;;;;;;;;19.75;17.75;;;;;8.17;57.45;102187.00;5093988;27;46813;-67
2023/04/03 04:56:32;;;;;;;;;28.00;22.00;;;;;8.26;57.25;102188.22;5079912;27;45578;-68
2023/04/03 04:58:57;;;;;;;;;25.50;23.75;;;;;8.37;56.90;102185.94;5081900;27;45530;-67
2023/04/03 05:01:23;;;;;;;;;27.00;22.50;;;;;8.49;56.68;102202.09;5096524;27;45521;-68
2023/04/03 05:03:49;;;;;;;;;17.00;15.25;;;;;8.47;56.60;102180.25;5077535;27;46840;-68
2023/04/03 05:06:15;;;;;;;;;25.00;19.75;;;;;8.65;56.18;102200.88;5098104;27;46154;-68
2023/04/03 05:08:40;;;;;;;;;29.50;24.00;;;;;8.69;55.30;102205.34;5095712;27;45602;-68
2023/04/03 05:11:06;;;;;;;;;25.75;20.75;;;;;8.54;54.47;102193.50;5096106;27;45501;-67
2023/04/03 05:13:32;;;;;;;;;20.50;19.00;;;;;8.50;55.18;102189.91;5095995;27;46171;-67
2023/04/03 05:15:57;;;;;;;;;27.75;23.25;;;;;8.46;53.90;102191.53;5096340;27;45323;-68
2023/04/03 05:18:23;;;;;;;;;24.00;21.50;;;;;8.44;54.01;102206.25;5100421;27;45339;-68
2023/04/03 05:20:50;;;;;;;;;31.25;25.25;;;;;8.30;53.93;102199.63;5100086;27;45355;-70
2023/04/03 05:23:16;;;;;;;;;30.75;24.75;;;;;8.18;54.67;102199.19;5088257;27;46193;-67
2023/04/03 05:25:43;;;;;;;;;25.50;23.00;;;;;8.18;54.85;102212.25;5096270;27;45299;-71
2023/04/03 05:28:09;;;;;;;;;27.50;22.50;;;;;8.24;55.01;102212.47;5095788;27;45508;-68
2023/04/03 05:30:35;;;;;;;;;31.00;23.50;;;;;8.28;54.50;102204.81;5095712;27;45436;-68
2023/04/03 05:33:02;;;;;;;;;22.50;19.25;;;;;8.36;54.38;102209.41;5094950;27;45811;-68
2023/04/03 05:35:27;;;;;;;;;26.50;23.00;;;;;8.34;54.72;102206.75;5095686;27;45480;-69
2023/04/03 05:37:53;;;;;;;;;25.25;22.50;;;;;8.38;54.49;102198.19;5095035;27;45656;-68
2023/04/03 05:40:18;;;;;;;;;21.50;15.75;;;;;8.47;54.38;102198.53;5077346;27;45980;-68
2023/04/03 05:42:44;;;;;;;;;18.25;16.00;;;;;8.54;54.08;102203.94;5095291;27;46261;-68
2023/04/03 05:45:10;;;;;;;;;28.75;25.75;;;;;8.57;53.93;102199.72;5095108;27;46214;-68
2023/04/03 05:47:35;;;;;;;;;28.50;25.50;;;;;8.67;54.08;102209.63;5095990;27;45421;-68
2023/04/03 05:50:05;;;;;;;;;27.50;22.00;;;;;8.73;53.90;102213.28;5097616;27;45405;-69
2023/04/03 05:52:35;;;;;;;;;26.25;21.50;;;;;8.77;54.00;102212.56;5095303;27;45548;-67
2023/04/03 05:55:01;;;;;;;;;28.00;23.00;;;;;8.76;53.38;102216.91;5097211;27;45541;-68
2023/04/03 05:57:26;;;;;;;;;28.75;26.50;;;;;8.78;52.58;102202.16;5094357;27;45447;-69
2023/04/03 05:59:52;;;;;;;;;27.25;22.25;;;;;8.85;53.03;102218.91;5095472;27;45637;-69
2023/04/03 06:02:21;;;;;;;;;20.25;18.50;;;;;8.79;53.20;102190.88;5098274;27;45897;-68
2023/04/03 06:04:47;;;;;;;;;28.50;25.00;;;;;8.91;52.68;102222.63;5076517;27;45367;-70
2023/04/03 06:07:16;;;;;;;;;37.50;28.75;;;;;8.76;51.73;102214.28;5087912;27;45295;-68
2023/04/03 06:09:42;;;;;;;;;27.50;26.25;;;;;8.52;52.04;102222.19;5075960;27;45495;-69
2023/04/03 06:12:08;;;;;;;;;31.25;26.25;;;;;8.25;52.23;102211.63;5074185;27;45532;-69
2023/04/03 06:14:34;;;;;;;;;28.00;26.50;;;;;8.19;52.74;102227.09;5078765;27;45556;-68
2023/04/03 06:16:59;;;;;;;;;34.00;29.00;;;;;8.08;53.77;102224.97;5075416;27;45546;-69
2023/04/03 06:19:25;;;;;;;;;32.25;28.00;;;;;8.15;53.85;102222.59;5075541;27;45317;-68
2023/04/03 06:21:51;;;;;;;;;26.50;26.50;;;;;8.25;52.73;102224.69;5056736;28;46871;-68
2023/04/03 06:24:17;;;;;;;;;35.25;27.75;;;;;8.15;52.78;102226.09;5093671;27;45401;-70
2023/04/03 06:26:43;;;;;;;;;35.50;23.75;;;;;8.02;53.06;102213.41;5073381;27;45619;-68
2023/04/03 06:29:09;;;;;;;;;31.75;26.25;;;;;8.02;53.24;102211.72;5077783;28;45582;-69
2023/04/03 06:31:38;;;;;;;;;30.50;28.25;;;;;8.01;52.50;102211.66;5079097;27;47955;-70
2023/04/03 06:34:04;;;;;;;;;33.00;29.75;;;;;7.95;53.23;102224.47;5095359;27;45626;-69
2023/04/03 06:36:30;;;;;;;;;35.00;30.00;;;;;7.89;53.07;102221.66;5094542;27;45497;-70
2023/04/03 06:38:57;;;;;;;;;28.75;27.50;;;;;7.79;53.43;102223.91;5094724;27;45339;-69
2023/04/03 06:41:22;;;;;;;;;31.00;25.00;;;;;7.82;53.44;102238.78;5097488;27;46653;-70
2023/04/03 06:43:48;;;;;;;;;31.75;27.50;;;;;7.83;53.46;102224.91;5080067;27;45592;-69
2023/04/03 06:46:19;;;;;;;;;32.50;30.50;;;;;7.70;53.45;102214.88;5098881;27;45623;-69
2023/04/03 06:48:45;;;;;;;;;31.25;28.00;;;;;7.70;53.62;102234.00;5063465;27;45367;-70
2023/04/03 06:51:24;;;;;;;;;33.75;27.50;;;;;7.61;53.67;102224.09;5075937;27;46571;-70
2023/04/03 06:53:51;;;;;;;;;31.00;28.25;;;;;7.59;53.26;102230.09;5075702;27;45863;-69
2023/04/03 06:56:17;;;;;;;;;27.25;23.25;;;;;7.49;53.80;102215.81;5097577;27;45494;-70
2023/04/03 06:58:44;;;;;;;;;33.00;26.50;;;;;7.61;53.72;102226.72;5076098;27;46093;-69
2023/04/03 07:01:11;;;;;;;;;34.50;29.25;;;;;7.63;52.90;102226.78;5085493;27;47558;-69
2023/04/03 07:03:38;;;;;;;;;33.50;27.75;;;;;7.58;53.88;102225.72;5076946;27;45499;-69
2023/04/03 07:06:05;;;;;;;;;35.00;29.00;;;;;7.56;54.00;102238.69;5073786;27;45721;-69
2023/04/03 07:08:32;;;;;;;;;22.75;22.75;;;;;7.64;54.41;102224.22;5073151;27;45493;-70
2023/04/03 07:10:57;;;;;;;;;32.50;28.00;;;;;7.83;54.11;102228.44;5073668;27;45537;-69
2023/04/03 07:13:23;;;;;;;;;30.50;24.75;;;;;7.99;54.03;102236.78;5073578;27;45635;-69
2023/04/03 07:15:50;;;;;;;;;24.00;22.75;;;;;8.11;53.40;102232.00;5073447;27;45522;-69
2023/04/03 07:18:16;;;;;;;;;19.00;18.25;;;;;8.21;53.32;102228.94;5076006;27;45464;-69
2023/04/03 07:20:42;;;;;;;;;29.25;28.00;;;;;8.35;52.94;102228.50;5077564;27;45954;-69
2023/04/03 07:23:08;;;;;;;;;29.50;27.25;;;;;8.12;52.24;102218.16;5068179;27;45539;-69
2023/04/03 07:25:33;;;;;;;;;30.00;27.50;;;;;8.13;52.61;102232.97;5093088;27;45695;-70
2023/04/03 07:27:59;;;;;;;;;27.25;24.75;;;;;8.04;52.67;102236.16;5073533;27;45586;-69
2023/04/03 07:30:26;;;;;;;;;33.50;26.50;;;;;7.92;53.47;102224.34;5073870;27;46464;-68
2023/04/03 07:32:52;;;;;;;;;28.50;24.75;;;;;8.00;53.73;102236.88;5057587;28;45507;-69
2023/04/03 07:35:17;;;;;;;;;30.00;25.00;;;;;8.07;53.49;102228.44;5073572;27;45481;-69
2023/04/03 07:37:43;;;;;;;;;29.50;24.75;;;;;8.12;53.24;102233.81;5072844;27;45493;-68
2023/04/03 07:40:11;;;;;;;;;31.25;24.75;;;;;8.09;53.11;102236.28;5072497;27;45518;-69
2023/04/03 07:42:36;;;;;;;;;28.25;24.75;;;;;7.96;53.46;102239.31;5086363;27;45486;-69
2023/04/03 07:45:04;;;;;;;;;24.75;22.75;;;;;7.77;53.67;102201.22;5078817;27;45506;-68
2023/04/03 07:47:31;;;;;;;;;27.00;23.50;;;;;8.14;53.78;102244.28;5084689;27;45508;-69
2023/04/03 07:49:57;;;;;;;;;26.75;22.50;;;;;8.32;53.81;102238.84;5080500;27;45416;-69
2023/04/03 07:52:25;;;;;;;;;27.25;23.75;;;;;8.44;52.98;102240.19;5076241;27;45465;-69
2023/04/03 07:54:54;;;;;;;;;30.50;24.00;;;;;8.45;52.64;102230.66;5076652;27;45493;-69
2023/04/03 07:57:20;;;;;;;;;32.50;22.75;;;;;8.49;52.78;102238.66;5086493;27;45837;-68
2023/04/03 07:59:45;;;;;;;;;26.75;20.25;;;;;8.55;52.68;102226.63;5062115;27;46561;-69
2023/04/03 08:02:12;;;;;;;;;25.75;20.75;;;;;8.72;52.16;102238.53;5081161;27;45423;-68
2023/04/03 08:04:38;;;;;;;;;22.50;19.50;;;;;8.74;52.37;102235.97;5076414;27;45381;-68
2023/04/03 08:07:04;;;;;;;;;25.75;22.75;;;;;8.92;51.89;102249.63;5090056;27;45918;-68
2023/04/03 08:09:31;;;;;;;;;27.25;23.00;;;;;9.05;52.06;102232.63;5092505;27;45461;-69
2023/04/03 08:11:58;;;;;;;;;20.25;15.00;;;;;9.15;51.37;102246.88;5083811;27;45563;-69
2023/04/03 08:14:24;;;;;;;;;22.50;18.25;;;;;9.10;50.64;102242.41;5088546;27;45636;-69
2023/04/03 08:16:50;;;;;;;;;23.00;19.00;;;;;8.94;51.20;102249.69;5088683;27;45721;-69
2023/04/03 08:19:17;;;;;;;;;17.50;17.00;;;;;8.93;50.64;102250.53;5081676;27;45634;-68
2023/04/03 08:21:44;;;;;;;;;19.25;15.25;;;;;9.05;50.88;102246.59;5068633;28;45485;-69
2023/04/03 08:24:11;;;;;;;;;17.00;14.50;;;;;9.05;50.03;102245.72;5074936;27;45392;-68
2023/04/03 08:26:39;;;;;;;;;9.50;9.25;;;;;8.89;49.26;102244.31;5081499;27;45593;-70
2023/04/03 08:29:05;;;;;;;;;13.25;9.25;;;;;8.74;49.62;102241.19;5080691;27;46212;-67
2023/04/03 08:31:31;;;;;;;;;13.00;12.50;;;;;8.84;50.36;102236.31;5091863;27;45461;-69
2023/04/03 08:33:57;;;;;;;;;10.00;9.75;;;;;9.04;49.61;102226.53;5088317;27;45679;-69
2023/04/03 08:36:26;;;;;;;;;10.50;10.00;;;;;9.10;48.84;102226.72;5084184;27;45359;-69
2023/04/03 08:38:53;;;;;;;;;15.75;11.00;;;;;9.02;49.12;102248.22;5090508;27;45484;-69
2023/04/03 08:41:39;;;;;;;;;14.25;12.00;;;;;8.97;48.96;102242.84;5063598;27;45731;-71
2023/04/03 08:44:14;;;;;;;;;15.75;10.75;;;;;9.11;49.06;102240.66;5085947;27;45858;-70
2023/04/03 08:47:04;;;;;;;;;12.00;10.75;;;;;9.03;48.24;102242.16;5088872;27;45600;-69
2023/04/03 08:49:37;;;;;;;;;11.25;11.00;;;;;8.92;48.34;102233.94;5075929;27;46761;-72
2023/04/03 08:52:10;;;;;;;;;12.75;11.25;;;;;9.03;48.30;102244.78;5075399;27;45357;-70
2023/04/03 08:55:00;;;;;;;;;10.00;9.75;;;;;9.18;48.41;102240.00;5078566;27;45623;-68
2023/04/03 08:57:39;;;;;;;;;14.50;10.50;;;;;9.25;47.95;102226.31;5087303;27;45602;-69
2023/04/03 09:00:14;;;;;;;;;15.25;11.25;;;;;9.25;47.44;102242.00;5088778;27;46267;-68
2023/04/03 09:02:51;;;;;;;;;9.50;9.50;;;;;9.15;47.85;102231.22;5056561;28;45497;-69
2023/04/03 09:05:22;;;;;;;;;12.00;8.75;;;;;9.27;48.04;102229.84;5056887;27;45501;-69
2023/04/03 09:08:07;;;;;;;;;12.25;10.50;;;;;9.39;47.71;102236.31;5081386;27;45491;-68
2023/04/03 09:10:37;;;;;;;;;11.75;9.50;;;;;9.20;47.89;102211.31;5080219;27;46249;-70
2023/04/03 09:13:10;;;;;;;;;11.00;10.25;;;;;9.48;48.24;102240.09;5079832;27;45431;-70
2023/04/03 09:15:36;;;;;;;;;9.25;8.00;;;;;9.70;48.19;102241.63;5075491;27;45465;-69
2023/04/03 09:18:23;;;;;;;;;8.25;8.25;;;;;9.90;47.58;102234.38;5075318;27;45398;-70
2023/04/03 09:20:57;;;;;;;;;6.25;6.25;;;;;10.10;47.29;102234.03;5057507;27;47218;-69
2023/04/03 09:23:30;;;;;;;;;8.25;7.25;;;;;10.26;46.87;102232.75;5069028;27;45457;-67
2023/04/03 09:26:07;;;;;;;;;10.00;8.50;;;;;10.40;46.50;102237.53;5096256;27;45504;-68
2023/04/03 09:28:38;;;;;;;;;10.25;8.75;;;;;10.38;46.25;102233.97;5100798;27;45353;-68
2023/04/03 09:31:18;;;;;;;;;9.75;8.00;;;;;10.41;46.12;102214.84;5079651;27;47809;-69
2023/04/03 09:33:45;;;;;;;;;11.50;9.25;;;;;10.57;45.73;102210.88;5077119;27;45469;-67
2023/04/03 09:36:11;;;;;;;;;13.00;9.25;;;;;10.75;45.98;102213.97;5087467;27;45595;-69
2023/04/03 09:38:37;;;;;;;;;13.25;9.75;;;;;10.98;48.20;102205.78;5080519;27;45475;-68
2023/04/03 09:41:07;;;;;;;;;14.00;11.75;;;;;11.24;46.01;102227.34;5085446;27;46283;-68
2023/04/03 09:43:34;;;;;;;;;15.50;10.50;;;;;11.40;44.69;102224.22;5090579;27;45954;-68
2023/04/03 09:46:33;;;;;;;;;17.75;17.75;;;;;11.23;47.24;102209.88;5106079;27;45457;-68
2023/04/03 09:49:02;;;;;;;;;69.75;52.50;;;;;11.50;46.63;102221.81;5091086;27;45656;-69
2023/04/03 09:51:29;;;;;;;;;23.75;20.25;;;;;11.40;45.00;102219.00;5073482;27;46205;-69
2023/04/03 09:53:56;;;;;;;;;25.50;24.25;;;;;11.42;45.34;102216.41;5095113;27;45589;-68
2023/04/03 09:56:28;;;;;;;;;35.75;30.25;;;;;11.59;47.28;102224.66;5064686;27;45612;-70
2023/04/03 09:59:07;;;;;;;;;33.25;28.25;;;;;11.82;45.88;102223.41;5088338;27;45458;-69
2023/04/03 10:01:39;;;;;;;;;9.50;9.25;;;;;11.76;42.97;102217.13;5085755;27;45280;-69
2023/04/03 10:04:10;;;;;;;;;11.50;10.50;;;;;11.71;42.94;102217.03;5089520;27;45433;-70
2023/04/03 10:06:43;;;;;;;;;11.50;10.50;;;;;11.59;43.40;102217.66;5084270;27;45973;-69
2023/04/03 10:09:20;;;;;;;;;11.75;10.00;;;;;11.42;42.18;102213.78;5061605;27;45464;-69
2023/04/03 10:12:04;;;;;;;;;10.00;8.50;;;;;11.49;42.67;102210.44;5084373;27;46100;-70
2023/04/03 10:14:35;;;;;;;;;9.00;7.75;;;;;11.57;42.83;102214.09;5085493;27;45605;-69
2023/04/03 10:17:20;;;;;;;;;8.75;8.50;;;;;11.83;43.63;102204.16;5085875;27;45515;-69
2023/04/03 10:20:30;;;;;;;;;10.00;7.25;;;;;12.14;43.46;102207.41;5093885;27;45420;-69
2023/04/03 10:23:03;;;;;;;;;6.50;6.00;;;;;12.27;40.71;102200.66;5088117;27;45811;-68
2023/04/03 10:25:49;;;;;;;;;11.25;9.25;;;;;12.14;40.69;102188.16;5088736;27;45683;-69
2023/04/03 10:28:44;;;;;;;;;8.25;7.75;;;;;12.13;40.99;102195.16;5084829;27;45509;-69
2023/04/03 10:31:26;;;;;;;;;10.00;9.50;;;;;12.14;41.25;102183.78;5070777;27;45638;-67
2023/04/03 10:33:58;;;;;;;;;8.50;8.50;;;;;12.37;42.47;102178.06;5078095;27;45892;-70
2023/04/03 10:36:26;;;;;;;;;12.50;11.25;;;;;12.61;40.84;102174.97;5090271;27;45442;-68
2023/04/03 10:39:10;;;;;;;;;12.75;11.00;;;;;12.50;39.78;102177.41;5089598;27;45411;-70
2023/04/03 10:41:54;;;;;;;;;10.50;8.50;;;;;12.42;40.19;102156.25;5081910;27;45571;-69
2023/04/03 10:44:51;;;;;;;;;9.75;8.25;;;;;12.86;39.68;102173.59;5087135;27;46068;-69
2023/04/03 10:47:21;;;;;;;;;11.00;9.50;;;;;12.85;39.84;102166.59;5089769;27;45409;-71
2023/04/03 10:50:10;;;;;;;;;9.00;9.00;;;;;12.84;39.67;102170.97;5089894;27;45909;-70
2023/04/03 10:53:00;;;;;;;;;10.75;8.75;;;;;13.01;39.58;102163.34;5077314;27;45585;-69
2023/04/03 10:55:42;;;;;;;;;10.75;10.00;;;;;13.31;39.56;102159.38;5077155;27;45466;-67
2023/04/03 10:58:37;;;;;;;;;9.50;9.00;;;;;13.30;38.83;102150.63;5057987;27;45611;-68
2023/04/03 11:01:13;;;;;;;;;7.00;7.00;;;;;13.53;39.04;102156.19;5062305;27;45564;-68
2023/04/03 11:03:43;;;;;;;;;10.25;8.00;;;;;13.72;38.65;102145.88;5076877;27;45690;-70
2023/04/03 11:06:12;;;;;;;;;14.50;12.25;;;;;13.62;39.11;102134.38;5076922;27;45993;-69
2023/04/03 11:08:51;;;;;;;;;13.75;11.00;;;;;13.63;37.66;102146.66;5075877;27;45547;-70
2023/04/03 11:11:21;;;;;;;;;11.50;7.50;;;;;13.35;36.96;102145.41;5070792;27;45480;-69
2023/04/03 11:13:58;;;;;;;;;8.75;7.50;;;;;13.27;37.87;102140.06;5079687;27;45511;-69
2023/04/03 11:16:28;;;;;;;;;6.75;6.50;;;;;13.17;37.12;102135.50;5057854;28;46299;-68
2023/04/03 11:19:14;;;;;;;;;7.00;7.00;;;;;13.03;37.43;102144.97;5054073;27;45742;-69
2023/04/03 11:21:47;;;;;;;;;8.00;7.50;;;;;13.20;36.99;102146.06;5054550;28;45663;-69
2023/04/03 11:24:26;;;;;;;;;5.75;5.75;;;;;13.47;40.84;102140.31;5092122;27;45370;-69
2023/04/03 11:26:55;;;;;;;;;7.50;6.25;;;;;13.88;39.36;102128.47;5086841;27;45529;-69
2023/04/03 11:29:33;;;;;;;;;10.00;7.75;;;;;14.28;36.69;102136.78;5072644;27;45523;-71